sensor_id;sensor_type;location;lat;lon;timestamp;P1;durP1;ratioP1;P2;durP2;ratioP2
27957;SDS011;15295;42.658;23.374;2022-09-13T00:00:57;5.57;;;4.25;;
27957;SDS011;15295;42.658;23.374;2022-09-13T00:03:37;5.45;;;4.50;;
27957;SDS011;15295;42.658;23.374;2022-09-13T00:06:08;7.15;;;4.72;;
27957;SDS011;15295;42.658;23.374;2022-09-13T00:08:45;7.47;;;4.55;;
27957;SDS011;15295;42.658;23.374;2022-09-13T00:11:14;8.65;;;4.45;;
27957;SDS011;15295;42.658;23.374;2022-09-13T00:13:43;6.07;;;4.45;;
27957;SDS011;15295;42.658;23.374;2022-09-13T00:16:16;7.82;;;4.40;;
27957;SDS011;15295;42.658;23.374;2022-09-13T00:18:53;6.18;;;4.55;;
27957;SDS011;15295;42.658;23.374;2022-09-13T00:21:24;7.40;;;4.30;;
27957;SDS011;15295;42.658;23.374;2022-09-13T00:24:19;7.82;;;4.90;;
27957;SDS011;15295;42.658;23.374;2022-09-13T00:26:50;7.60;;;4.85;;
27957;SDS011;15295;42.658;23.374;2022-09-13T00:29:36;8.38;;;4.90;;
27957;SDS011;15295;42.658;23.374;2022-09-13T00:32:03;8.57;;;4.70;;
27957;SDS011;15295;42.658;23.374;2022-09-13T00:34:31;8.10;;;4.65;;
27957;SDS011;15295;42.658;23.374;2022-09-13T00:37:06;6.43;;;4.38;;
27957;SDS011;15295;42.658;23.374;2022-09-13T00:39:40;6.00;;;4.45;;
27957;SDS011;15295;42.658;23.374;2022-09-13T00:42:11;8.38;;;4.82;;
27957;SDS011;15295;42.658;23.374;2022-09-13T00:44:59;5.32;;;4.47;;
27957;SDS011;15295;42.658;23.374;2022-09-13T00:47:44;6.35;;;4.30;;
27957;SDS011;15295;42.658;23.374;2022-09-13T00:50:31;8.10;;;4.75;;
27957;SDS011;15295;42.658;23.374;2022-09-13T00:53:27;7.07;;;4.47;;
27957;SDS011;15295;42.658;23.374;2022-09-13T00:56:22;8.25;;;4.70;;
27957;SDS011;15295;42.658;23.374;2022-09-13T00:59:09;6.05;;;4.78;;
27957;SDS011;15295;42.658;23.374;2022-09-13T01:01:52;6.07;;;4.82;;
27957;SDS011;15295;42.658;23.374;2022-09-13T01:04:24;7.60;;;5.07;;
27957;SDS011;15295;42.658;23.374;2022-09-13T01:06:55;9.02;;;5.15;;
27957;SDS011;15295;42.658;23.374;2022-09-13T01:09:30;7.75;;;4.53;;
27957;SDS011;15295;42.658;23.374;2022-09-13T01:15:07;6.80;;;4.88;;
27957;SDS011;15295;42.658;23.374;2022-09-13T01:17:43;6.70;;;4.93;;
27957;SDS011;15295;42.658;23.374;2022-09-13T01:20:33;7.85;;;4.35;;
27957;SDS011;15295;42.658;23.374;2022-09-13T01:34:55;7.82;;;4.43;;
27957;SDS011;15295;42.658;23.374;2022-09-13T01:37:43;7.07;;;4.15;;
27957;SDS011;15295;42.658;23.374;2022-09-13T01:48:09;6.38;;;4.50;;
27957;SDS011;15295;42.658;23.374;2022-09-13T01:50:47;6.55;;;4.32;;
27957;SDS011;15295;42.658;23.374;2022-09-13T01:57:02;8.88;;;4.70;;
27957;SDS011;15295;42.658;23.374;2022-09-13T01:59:53;6.05;;;4.72;;
27957;SDS011;15295;42.658;23.374;2022-09-13T02:02:45;7.80;;;4.38;;
27957;SDS011;15295;42.658;23.374;2022-09-13T02:05:23;8.73;;;5.20;;
27957;SDS011;15295;42.658;23.374;2022-09-13T02:08:07;6.60;;;4.43;;
27957;SDS011;15295;42.658;23.374;2022-09-13T02:10:43;6.97;;;4.60;;
27957;SDS011;15295;42.658;23.374;2022-09-13T02:13:21;6.65;;;4.40;;
27957;SDS011;15295;42.658;23.374;2022-09-13T02:15:56;10.45;;;4.85;;
27957;SDS011;15295;42.658;23.374;2022-09-13T02:18:38;8.35;;;5.00;;
27957;SDS011;15295;42.658;23.374;2022-09-13T02:21:22;6.00;;;4.30;;
27957;SDS011;15295;42.658;23.374;2022-09-13T02:23:58;7.88;;;4.38;;
27957;SDS011;15295;42.658;23.374;2022-09-13T02:26:28;6.38;;;4.57;;
27957;SDS011;15295;42.658;23.374;2022-09-13T02:29:07;5.70;;;4.85;;
27957;SDS011;15295;42.658;23.374;2022-09-13T02:34:54;7.70;;;5.25;;
27957;SDS011;15295;42.658;23.374;2022-09-13T02:37:39;7.75;;;4.68;;
27957;SDS011;15295;42.658;23.374;2022-09-13T02:40:16;6.57;;;4.38;;
27957;SDS011;15295;42.658;23.374;2022-09-13T02:42:53;6.57;;;4.68;;
27957;SDS011;15295;42.658;23.374;2022-09-13T02:45:55;6.05;;;4.35;;
27957;SDS011;15295;42.658;23.374;2022-09-13T02:50:18;6.80;;;4.70;;
27957;SDS011;15295;42.658;23.374;2022-09-13T02:58:20;9.67;;;4.60;;
27957;SDS011;15295;42.658;23.374;2022-09-13T03:04:24;5.70;;;4.22;;
27957;SDS011;15295;42.658;23.374;2022-09-13T03:07:22;10.73;;;4.93;;
27957;SDS011;15295;42.658;23.374;2022-09-13T03:10:17;6.93;;;4.07;;
27957;SDS011;15295;42.658;23.374;2022-09-13T03:19:22;8.68;;;4.20;;
27957;SDS011;15295;42.658;23.374;2022-09-13T03:34:39;7.85;;;4.35;;
27957;SDS011;15295;42.658;23.374;2022-09-13T03:40:20;5.75;;;4.65;;
27957;SDS011;15295;42.658;23.374;2022-09-13T03:46:07;6.20;;;4.78;;
27957;SDS011;15295;42.658;23.374;2022-09-13T03:48:42;8.20;;;4.70;;
27957;SDS011;15295;42.658;23.374;2022-09-13T03:51:10;7.28;;;4.30;;
27957;SDS011;15295;42.658;23.374;2022-09-13T03:53:51;5.90;;;4.22;;
27957;SDS011;15295;42.658;23.374;2022-09-13T03:59:45;9.05;;;4.55;;
27957;SDS011;15295;42.658;23.374;2022-09-13T04:02:31;6.60;;;4.30;;
27957;SDS011;15295;42.658;23.374;2022-09-13T04:05:21;8.45;;;4.78;;
27957;SDS011;15295;42.658;23.374;2022-09-13T04:07:52;10.30;;;4.22;;
27957;SDS011;15295;42.658;23.374;2022-09-13T04:10:22;12.25;;;4.35;;
27957;SDS011;15295;42.658;23.374;2022-09-13T04:12:49;8.32;;;4.20;;
27957;SDS011;15295;42.658;23.374;2022-09-13T04:15:18;8.05;;;4.50;;
27957;SDS011;15295;42.658;23.374;2022-09-13T04:17:44;5.65;;;3.95;;
27957;SDS011;15295;42.658;23.374;2022-09-13T04:20:10;10.63;;;4.35;;
27957;SDS011;15295;42.658;23.374;2022-09-13T04:22:39;7.47;;;4.53;;
27957;SDS011;15295;42.658;23.374;2022-09-13T04:25:06;7.63;;;4.72;;
27957;SDS011;15295;42.658;23.374;2022-09-13T04:27:36;7.88;;;4.85;;
27957;SDS011;15295;42.658;23.374;2022-09-13T04:30:06;7.35;;;4.35;;
27957;SDS011;15295;42.658;23.374;2022-09-13T04:32:33;5.50;;;4.22;;
27957;SDS011;15295;42.658;23.374;2022-09-13T04:35:00;8.00;;;4.88;;
27957;SDS011;15295;42.658;23.374;2022-09-13T04:37:34;6.80;;;4.50;;
27957;SDS011;15295;42.658;23.374;2022-09-13T04:40:04;8.90;;;4.72;;
27957;SDS011;15295;42.658;23.374;2022-09-13T04:42:32;8.10;;;4.50;;
27957;SDS011;15295;42.658;23.374;2022-09-13T04:45:06;9.80;;;4.82;;
27957;SDS011;15295;42.658;23.374;2022-09-13T04:47:33;11.20;;;4.68;;
27957;SDS011;15295;42.658;23.374;2022-09-13T04:49:59;10.60;;;4.53;;
27957;SDS011;15295;42.658;23.374;2022-09-13T04:52:25;11.63;;;4.30;;
27957;SDS011;15295;42.658;23.374;2022-09-13T04:54:50;7.43;;;4.07;;
27957;SDS011;15295;42.658;23.374;2022-09-13T04:57:17;13.48;;;5.13;;
27957;SDS011;15295;42.658;23.374;2022-09-13T04:59:43;9.90;;;5.10;;
27957;SDS011;15295;42.658;23.374;2022-09-13T05:02:11;19.17;;;5.97;;
27957;SDS011;15295;42.658;23.374;2022-09-13T05:04:40;7.70;;;4.78;;
27957;SDS011;15295;42.658;23.374;2022-09-13T05:07:09;7.97;;;4.85;;
27957;SDS011;15295;42.658;23.374;2022-09-13T05:09:40;7.30;;;4.38;;
27957;SDS011;15295;42.658;23.374;2022-09-13T05:12:07;12.50;;;4.35;;
27957;SDS011;15295;42.658;23.374;2022-09-13T05:14:35;7.03;;;4.40;;
27957;SDS011;15295;42.658;23.374;2022-09-13T05:17:21;7.53;;;4.72;;
27957;SDS011;15295;42.658;23.374;2022-09-13T05:19:54;5.78;;;4.60;;
27957;SDS011;15295;42.658;23.374;2022-09-13T05:22:34;7.93;;;4.00;;
27957;SDS011;15295;42.658;23.374;2022-09-13T05:25:01;11.20;;;4.88;;
27957;SDS011;15295;42.658;23.374;2022-09-13T05:27:26;7.53;;;4.38;;
27957;SDS011;15295;42.658;23.374;2022-09-13T05:29:54;8.25;;;4.25;;
27957;SDS011;15295;42.658;23.374;2022-09-13T05:32:29;8.68;;;4.07;;
27957;SDS011;15295;42.658;23.374;2022-09-13T05:34:57;4.90;;;3.83;;
27957;SDS011;15295;42.658;23.374;2022-09-13T05:37:49;6.07;;;3.90;;
27957;SDS011;15295;42.658;23.374;2022-09-13T05:40:26;6.07;;;4.03;;
27957;SDS011;15295;42.658;23.374;2022-09-13T05:42:58;12.63;;;4.15;;
27957;SDS011;15295;42.658;23.374;2022-09-13T05:45:24;8.85;;;3.92;;
27957;SDS011;15295;42.658;23.374;2022-09-13T05:47:50;8.80;;;3.47;;
27957;SDS011;15295;42.658;23.374;2022-09-13T05:50:27;6.95;;;3.85;;
27957;SDS011;15295;42.658;23.374;2022-09-13T05:52:56;5.80;;;3.33;;
27957;SDS011;15295;42.658;23.374;2022-09-13T05:55:22;6.38;;;3.45;;
27957;SDS011;15295;42.658;23.374;2022-09-13T05:57:52;6.55;;;3.17;;
27957;SDS011;15295;42.658;23.374;2022-09-13T06:00:28;7.50;;;3.42;;
27957;SDS011;15295;42.658;23.374;2022-09-13T06:02:55;6.65;;;3.30;;
27957;SDS011;15295;42.658;23.374;2022-09-13T06:05:21;4.22;;;3.08;;
27957;SDS011;15295;42.658;23.374;2022-09-13T06:07:52;6.45;;;3.55;;
27957;SDS011;15295;42.658;23.374;2022-09-13T06:16:52;7.53;;;3.47;;
27957;SDS011;15295;42.658;23.374;2022-09-13T06:19:17;6.18;;;3.22;;
27957;SDS011;15295;42.658;23.374;2022-09-13T06:21:43;7.32;;;4.07;;
27957;SDS011;15295;42.658;23.374;2022-09-13T06:24:08;4.65;;;2.92;;
27957;SDS011;15295;42.658;23.374;2022-09-13T06:26:34;9.15;;;3.65;;
27957;SDS011;15295;42.658;23.374;2022-09-13T06:28:59;8.90;;;4.75;;
27957;SDS011;15295;42.658;23.374;2022-09-13T06:31:25;5.65;;;3.67;;
27957;SDS011;15295;42.658;23.374;2022-09-13T06:44:17;6.78;;;4.10;;
27957;SDS011;15295;42.658;23.374;2022-09-13T06:46:43;6.40;;;3.92;;
27957;SDS011;15295;42.658;23.374;2022-09-13T06:49:09;11.00;;;4.60;;
27957;SDS011;15295;42.658;23.374;2022-09-13T06:51:35;6.40;;;3.53;;
27957;SDS011;15295;42.658;23.374;2022-09-13T06:54:01;7.72;;;4.50;;
27957;SDS011;15295;42.658;23.374;2022-09-13T06:56:31;5.38;;;3.58;;
27957;SDS011;15295;42.658;23.374;2022-09-13T06:59:14;8.05;;;4.13;;
27957;SDS011;15295;42.658;23.374;2022-09-13T07:01:40;6.97;;;3.95;;
27957;SDS011;15295;42.658;23.374;2022-09-13T07:04:10;5.03;;;3.45;;
27957;SDS011;15295;42.658;23.374;2022-09-13T07:06:46;7.05;;;3.90;;
27957;SDS011;15295;42.658;23.374;2022-09-13T07:09:19;5.60;;;3.60;;
27957;SDS011;15295;42.658;23.374;2022-09-13T07:11:47;9.00;;;3.10;;
27957;SDS011;15295;42.658;23.374;2022-09-13T07:14:15;9.18;;;4.28;;
27957;SDS011;15295;42.658;23.374;2022-09-13T07:16:42;8.63;;;5.60;;
27957;SDS011;15295;42.658;23.374;2022-09-13T07:19:14;4.45;;;3.40;;
27957;SDS011;15295;42.658;23.374;2022-09-13T07:21:47;11.65;;;4.40;;
27957;SDS011;15295;42.658;23.374;2022-09-13T10:17:27;7.72;;;4.00;;
27957;SDS011;15295;42.658;23.374;2022-09-13T10:20:04;4.68;;;2.25;;
27957;SDS011;15295;42.658;23.374;2022-09-13T10:54:49;3.40;;;2.15;;
27957;SDS011;15295;42.658;23.374;2022-09-13T11:07:16;2.60;;;2.20;;
27957;SDS011;15295;42.658;23.374;2022-09-13T11:16:20;3.75;;;3.33;;
27957;SDS011;15295;42.658;23.374;2022-09-13T11:21:54;3.08;;;2.42;;
27957;SDS011;15295;42.658;23.374;2022-09-13T11:25:24;3.03;;;2.03;;
27957;SDS011;15295;42.658;23.374;2022-09-13T11:37:11;3.40;;;2.08;;
27957;SDS011;15295;42.658;23.374;2022-09-13T12:13:56;3.88;;;2.47;;
27957;SDS011;15295;42.658;23.374;2022-09-13T13:29:30;6.38;;;2.25;;
27957;SDS011;15295;42.658;23.374;2022-09-13T13:59:40;3.38;;;2.13;;
27957;SDS011;15295;42.658;23.374;2022-09-13T14:53:59;4.93;;;2.05;;
27957;SDS011;15295;42.658;23.374;2022-09-13T18:29:14;7.50;;;4.85;;
27957;SDS011;15295;42.658;23.374;2022-09-13T18:31:40;6.20;;;4.22;;
27957;SDS011;15295;42.658;23.374;2022-09-13T18:34:07;7.43;;;4.70;;
27957;SDS011;15295;42.658;23.374;2022-09-13T18:36:35;8.20;;;4.10;;
27957;SDS011;15295;42.658;23.374;2022-09-13T18:39:06;5.78;;;4.10;;
27957;SDS011;15295;42.658;23.374;2022-09-13T18:41:36;6.07;;;4.00;;
27957;SDS011;15295;42.658;23.374;2022-09-13T18:54:21;7.90;;;5.70;;
27957;SDS011;15295;42.658;23.374;2022-09-13T18:56:46;8.60;;;4.70;;
27957;SDS011;15295;42.658;23.374;2022-09-13T18:59:12;8.63;;;5.18;;
27957;SDS011;15295;42.658;23.374;2022-09-13T19:01:38;9.82;;;5.38;;
27957;SDS011;15295;42.658;23.374;2022-09-13T19:04:08;9.95;;;5.70;;
27957;SDS011;15295;42.658;23.374;2022-09-13T19:06:39;16.38;;;6.93;;
27957;SDS011;15295;42.658;23.374;2022-09-13T19:09:06;10.57;;;5.97;;
27957;SDS011;15295;42.658;23.374;2022-09-13T19:11:37;10.15;;;5.65;;
27957;SDS011;15295;42.658;23.374;2022-09-13T19:14:05;6.28;;;4.18;;
27957;SDS011;15295;42.658;23.374;2022-09-13T19:16:31;8.88;;;5.20;;
27957;SDS011;15295;42.658;23.374;2022-09-13T19:18:56;12.13;;;5.30;;
27957;SDS011;15295;42.658;23.374;2022-09-13T19:21:24;7.93;;;4.85;;
27957;SDS011;15295;42.658;23.374;2022-09-13T19:24:05;9.65;;;4.95;;
27957;SDS011;15295;42.658;23.374;2022-09-13T19:31:56;8.05;;;4.95;;
27957;SDS011;15295;42.658;23.374;2022-09-13T19:53:12;8.75;;;4.82;;
27957;SDS011;15295;42.658;23.374;2022-09-13T20:03:47;16.38;;;9.85;;
27957;SDS011;15295;42.658;23.374;2022-09-13T20:06:15;9.95;;;6.65;;
27957;SDS011;15295;42.658;23.374;2022-09-13T20:08:40;12.00;;;8.35;;
27957;SDS011;15295;42.658;23.374;2022-09-13T20:11:07;10.00;;;6.35;;
27957;SDS011;15295;42.658;23.374;2022-09-13T20:13:33;8.32;;;6.15;;
27957;SDS011;15295;42.658;23.374;2022-09-13T20:16:11;9.73;;;5.50;;
27957;SDS011;15295;42.658;23.374;2022-09-13T20:18:41;7.03;;;4.85;;
27957;SDS011;15295;42.658;23.374;2022-09-13T20:21:07;11.43;;;7.75;;
27957;SDS011;15295;42.658;23.374;2022-09-13T20:23:34;11.88;;;5.90;;
27957;SDS011;15295;42.658;23.374;2022-09-13T20:26:11;8.90;;;5.45;;
27957;SDS011;15295;42.658;23.374;2022-09-13T20:28:38;9.75;;;5.55;;
27957;SDS011;15295;42.658;23.374;2022-09-13T20:31:05;9.20;;;6.47;;
27957;SDS011;15295;42.658;23.374;2022-09-13T20:33:31;9.05;;;5.55;;
27957;SDS011;15295;42.658;23.374;2022-09-13T20:36:01;12.75;;;6.82;;
27957;SDS011;15295;42.658;23.374;2022-09-13T20:38:28;7.03;;;5.10;;
27957;SDS011;15295;42.658;23.374;2022-09-13T20:40:53;10.45;;;4.80;;
27957;SDS011;15295;42.658;23.374;2022-09-13T20:43:19;12.40;;;7.22;;
27957;SDS011;15295;42.658;23.374;2022-09-13T20:45:54;10.57;;;6.57;;
27957;SDS011;15295;42.658;23.374;2022-09-13T20:48:22;7.80;;;5.35;;
27957;SDS011;15295;42.658;23.374;2022-09-13T20:51:02;10.27;;;5.47;;
27957;SDS011;15295;42.658;23.374;2022-09-13T20:53:33;6.68;;;5.15;;
27957;SDS011;15295;42.658;23.374;2022-09-13T20:58:49;8.20;;;4.60;;
27957;SDS011;15295;42.658;23.374;2022-09-13T21:01:19;11.65;;;6.07;;
27957;SDS011;15295;42.658;23.374;2022-09-13T21:03:46;7.93;;;5.10;;
27957;SDS011;15295;42.658;23.374;2022-09-13T21:06:14;8.15;;;4.25;;
27957;SDS011;15295;42.658;23.374;2022-09-13T21:08:39;9.20;;;5.20;;
27957;SDS011;15295;42.658;23.374;2022-09-13T21:11:06;7.68;;;4.40;;
27957;SDS011;15295;42.658;23.374;2022-09-13T21:13:58;7.50;;;3.97;;
27957;SDS011;15295;42.658;23.374;2022-09-13T21:16:27;5.45;;;3.90;;
27957;SDS011;15295;42.658;23.374;2022-09-13T21:18:54;6.50;;;3.92;;
27957;SDS011;15295;42.658;23.374;2022-09-13T21:21:28;5.03;;;3.70;;
27957;SDS011;15295;42.658;23.374;2022-09-13T21:23:55;6.03;;;4.00;;
27957;SDS011;15295;42.658;23.374;2022-09-13T21:26:22;6.35;;;3.92;;
27957;SDS011;15295;42.658;23.374;2022-09-13T21:28:50;4.10;;;3.55;;
27957;SDS011;15295;42.658;23.374;2022-09-13T21:31:18;4.70;;;3.65;;
27957;SDS011;15295;42.658;23.374;2022-09-13T21:33:46;4.80;;;3.80;;
27957;SDS011;15295;42.658;23.374;2022-09-13T21:36:12;5.07;;;3.90;;
27957;SDS011;15295;42.658;23.374;2022-09-13T21:38:38;5.05;;;3.75;;
27957;SDS011;15295;42.658;23.374;2022-09-13T21:43:31;8.30;;;3.92;;
27957;SDS011;15295;42.658;23.374;2022-09-13T21:46:03;9.73;;;4.22;;
27957;SDS011;15295;42.658;23.374;2022-09-13T21:48:31;5.57;;;3.78;;
27957;SDS011;15295;42.658;23.374;2022-09-13T21:51:08;5.05;;;4.18;;
27957;SDS011;15295;42.658;23.374;2022-09-13T21:53:49;5.63;;;4.05;;
27957;SDS011;15295;42.658;23.374;2022-09-13T21:56:17;6.28;;;4.22;;
27957;SDS011;15295;42.658;23.374;2022-09-13T21:58:49;6.45;;;4.20;;
27957;SDS011;15295;42.658;23.374;2022-09-13T22:01:17;6.28;;;4.70;;
27957;SDS011;15295;42.658;23.374;2022-09-13T22:03:46;7.93;;;4.45;;
27957;SDS011;15295;42.658;23.374;2022-09-13T22:06:13;5.75;;;4.05;;
27957;SDS011;15295;42.658;23.374;2022-09-13T22:08:41;5.13;;;4.15;;
27957;SDS011;15295;42.658;23.374;2022-09-13T22:11:12;6.40;;;3.70;;
27957;SDS011;15295;42.658;23.374;2022-09-13T22:13:42;4.13;;;3.40;;
27957;SDS011;15295;42.658;23.374;2022-09-13T22:16:13;3.70;;;3.10;;
27957;SDS011;15295;42.658;23.374;2022-09-13T22:18:48;4.82;;;3.38;;
27957;SDS011;15295;42.658;23.374;2022-09-13T22:21:17;4.35;;;3.15;;
27957;SDS011;15295;42.658;23.374;2022-09-13T22:23:44;6.70;;;3.30;;
27957;SDS011;15295;42.658;23.374;2022-09-13T22:26:14;5.13;;;3.83;;
27957;SDS011;15295;42.658;23.374;2022-09-13T22:28:42;6.60;;;3.58;;
27957;SDS011;15295;42.658;23.374;2022-09-13T22:31:31;5.18;;;3.13;;
27957;SDS011;15295;42.658;23.374;2022-09-13T22:33:58;4.00;;;2.90;;
27957;SDS011;15295;42.658;23.374;2022-09-13T22:39:00;4.03;;;3.45;;
27957;SDS011;15295;42.658;23.374;2022-09-13T22:41:27;5.38;;;3.50;;
27957;SDS011;15295;42.658;23.374;2022-09-13T22:43:56;6.45;;;3.83;;
27957;SDS011;15295;42.658;23.374;2022-09-13T22:46:27;3.92;;;3.10;;
27957;SDS011;15295;42.658;23.374;2022-09-13T22:51:35;4.85;;;3.55;;
27957;SDS011;15295;42.658;23.374;2022-09-13T22:54:00;3.40;;;3.10;;
27957;SDS011;15295;42.658;23.374;2022-09-13T22:56:27;3.70;;;3.25;;
27957;SDS011;15295;42.658;23.374;2022-09-13T22:59:00;4.55;;;3.38;;
27957;SDS011;15295;42.658;23.374;2022-09-13T23:01:28;8.52;;;3.35;;
27957;SDS011;15295;42.658;23.374;2022-09-13T23:03:54;4.63;;;3.83;;
27957;SDS011;15295;42.658;23.374;2022-09-13T23:06:21;8.30;;;3.70;;
27957;SDS011;15295;42.658;23.374;2022-09-13T23:08:49;3.70;;;3.30;;
27957;SDS011;15295;42.658;23.374;2022-09-13T23:11:17;5.72;;;3.42;;
27957;SDS011;15295;42.658;23.374;2022-09-13T23:13:48;4.10;;;3.60;;
27957;SDS011;15295;42.658;23.374;2022-09-13T23:16:18;3.95;;;3.50;;
27957;SDS011;15295;42.658;23.374;2022-09-13T23:21:37;7.40;;;4.25;;
27957;SDS011;15295;42.658;23.374;2022-09-13T23:24:04;5.45;;;3.50;;
27957;SDS011;15295;42.658;23.374;2022-09-13T23:26:31;4.60;;;3.90;;
27957;SDS011;15295;42.658;23.374;2022-09-13T23:29:13;4.00;;;3.42;;
27957;SDS011;15295;42.658;23.374;2022-09-13T23:31:42;5.65;;;4.07;;
27957;SDS011;15295;42.658;23.374;2022-09-13T23:34:09;4.80;;;3.83;;
27957;SDS011;15295;42.658;23.374;2022-09-13T23:36:39;3.85;;;3.45;;
27957;SDS011;15295;42.658;23.374;2022-09-13T23:39:07;4.15;;;3.75;;
27957;SDS011;15295;42.658;23.374;2022-09-13T23:41:35;5.45;;;3.80;;
27957;SDS011;15295;42.658;23.374;2022-09-13T23:44:01;8.10;;;3.80;;
27957;SDS011;15295;42.658;23.374;2022-09-13T23:46:27;4.05;;;3.50;;
27957;SDS011;15295;42.658;23.374;2022-09-13T23:48:53;7.75;;;3.60;;
27957;SDS011;15295;42.658;23.374;2022-09-13T23:51:22;5.05;;;3.53;;
27957;SDS011;15295;42.658;23.374;2022-09-13T23:53:49;5.32;;;4.03;;
27957;SDS011;15295;42.658;23.374;2022-09-13T23:56:17;5.25;;;4.20;;
27957;SDS011;15295;42.658;23.374;2022-09-13T23:58:44;5.00;;;3.80;;
